Hauptseite
METAR-TAF:

METAR-TAF

Flughäfen :

Flughafen Sandakan

Sandakan, Malaysia

Breite: 05-54N, Länge: 118-04E, Höhe: 12 m

Beobachtung

Neuester Wetterbericht von vor 30 Minuten, um 18:00 UTC
Wind 4 kt aus Südwest
Temperatur 25°C
Luftfeuchtigkeit 94%
Luftdruck 1008 hPa
Sichtweite 10 km oder mehr
Leicht bewölkt in der Höhe von 1600 ft

METAR: WBKS 181800Z 23004KT 9999 FEW016 25/24 Q1008

Zeit: 02:30 (18:30 UTC)

Prognose

Neuester Wetterbericht von vor 1 Stunde und 30 Minuten, um 17:00 UTC
Gültige Prognose vom 18 um 18 UTC bis 19 um 18 UTC
Wind 5 kt aus West/Südwest
Sichtweite 10 km oder mehr
Leicht bewölkt in der Höhe von 1600 ft

TAF: WBKS 181700Z 1818/1918 24005KT 9999 FEW016

Wetterbeobachtungen und Prognosen von mehr als 4000 Flughäfen (METAR und TAF Bericht).

Die verfügbaren Stationen werden durch gelbe und rote Markierungen auf der Karte dargestellt.

Führen Sie die Maus auf sie, um den Namen der Station zu sehen.

Darauf klicken, um die Beobachtung von Wetterbeobachtungen und Prognosen zu sehen.

Um die Karte zu ändern : klicken Sie auf den grünen Tasten mit einem schwarzen Kreuz Zum Vergrößern, auf den grünen Button mit einem Gedankenstrich zu verkleinern, oder auf die grünen Pfeile für benachbarte Karten.


METAR-TAF: